createdAt,value
2023-10-20T00:02:16.416Z,19.8
2023-10-20T00:08:08.695Z,19.8
2023-10-20T00:14:00.385Z,19.8
2023-10-20T00:19:51.643Z,19.7
2023-10-20T00:25:43.467Z,19.8
2023-10-20T00:31:35.874Z,19.8
2023-10-20T00:37:27.716Z,19.7
2023-10-20T00:43:19.392Z,19.8
2023-10-20T00:49:12.616Z,19.8
2023-10-20T00:55:04.891Z,19.8
2023-10-20T01:00:56.763Z,19.8
2023-10-20T01:06:49.937Z,19.8
2023-10-20T01:12:42.041Z,19.8
2023-10-20T01:18:34.218Z,19.8
2023-10-20T01:24:26.265Z,19.8
2023-10-20T01:30:17.572Z,19.8
2023-10-20T01:36:09.395Z,19.8
2023-10-20T01:42:00.989Z,19.8
2023-10-20T01:47:54.117Z,19.8
2023-10-20T01:53:46.351Z,19.8
2023-10-20T01:59:38.001Z,19.8
2023-10-20T02:05:31.439Z,19.8
2023-10-20T02:11:07.710Z,19.8
2023-10-20T02:17:00.744Z,19.8
2023-10-20T02:22:53.125Z,19.8
2023-10-20T02:28:44.815Z,19.8
2023-10-20T02:34:37.519Z,19.8
2023-10-20T02:40:29.203Z,19.7
2023-10-20T02:46:20.450Z,19.8
2023-10-20T02:52:13.432Z,19.8
2023-10-20T02:58:05.196Z,19.8
2023-10-20T03:03:58.200Z,19.7
2023-10-20T03:09:51.030Z,19.7
2023-10-20T03:15:42.572Z,19.7
2023-10-20T03:21:34.357Z,19.7
2023-10-20T03:27:29.748Z,19.7
2023-10-20T03:33:21.726Z,19.6
2023-10-20T03:39:14.402Z,19.7
2023-10-20T03:45:06.236Z,19.7
2023-10-20T03:50:58.818Z,19.7
2023-10-20T03:56:50.271Z,19.6
2023-10-20T04:02:43.333Z,19.7
2023-10-20T04:08:20.102Z,19.7
2023-10-20T04:13:56.507Z,19.6
2023-10-20T04:19:36.351Z,19.6
2023-10-20T04:25:12.522Z,19.6
2023-10-20T04:30:48.877Z,19.7
2023-10-20T04:36:26.138Z,19.7
2023-10-20T04:42:03.600Z,19.6
2023-10-20T04:47:40.879Z,19.7
2023-10-20T04:53:18.544Z,19.6
2023-10-20T04:58:39.838Z,19.6
2023-10-20T05:04:16.677Z,19.6
2023-10-20T05:09:56.397Z,19.6
2023-10-20T05:15:32.148Z,19.6
2023-10-20T05:21:08.667Z,19.6
2023-10-20T05:26:44.864Z,19.6
2023-10-20T05:32:23.465Z,19.5
2023-10-20T05:37:44.656Z,19.4
2023-10-20T05:43:05.633Z,19.5
2023-10-20T05:48:27.189Z,19.4
2023-10-20T05:53:48.228Z,19.5
2023-10-20T05:59:09.181Z,19.4
2023-10-20T06:05:02.355Z,19.4
2023-10-20T06:10:24.368Z,19.4
2023-10-20T06:15:44.834Z,19.4
2023-10-20T06:21:35.739Z,19.4
2023-10-20T06:26:56.336Z,19.4
2023-10-20T06:32:18.302Z,19.4
2023-10-20T06:37:55.402Z,19.4
2023-10-20T06:43:32.352Z,19.4
2023-10-20T06:49:10.053Z,19.4
2023-10-20T06:55:43.079Z,19.4
2023-10-20T07:01:49.305Z,19.4
2023-10-20T07:07:41.735Z,19.4
2023-10-20T07:13:38.133Z,19.4
2023-10-20T07:19:31.269Z,19.5
2023-10-20T07:25:25.782Z,19.4
2023-10-20T07:31:24.317Z,19.4
2023-10-20T07:37:17.718Z,19.4
2023-10-20T07:43:10.239Z,19.4
2023-10-20T07:49:03.593Z,19.4
2023-10-20T07:54:40.783Z,19.4
2023-10-20T08:00:34.641Z,19.4
2023-10-20T08:06:35.191Z,19.5
2023-10-20T08:12:30.265Z,19.4
2023-10-20T08:18:23.638Z,19.4
2023-10-20T08:24:16.378Z,19.4
2023-10-20T08:30:09.086Z,19.4
2023-10-20T08:36:02.088Z,19.5
2023-10-20T08:42:17.755Z,19.4
2023-10-20T08:47:40.111Z,19.4
2023-10-20T08:53:20.311Z,19.5
2023-10-20T08:59:16.287Z,19.5
2023-10-20T09:05:27.205Z,19.5
2023-10-20T09:11:22.673Z,19.5
2023-10-20T09:17:18.562Z,19.5
2023-10-20T09:23:13.336Z,19.6
2023-10-20T09:28:36.417Z,19.6
2023-10-20T09:34:34.979Z,19.5
2023-10-20T09:40:13.436Z,19.6
2023-10-20T09:46:16.980Z,19.6
2023-10-20T09:52:15.244Z,19.6
2023-10-20T09:58:11.042Z,19.6
2023-10-20T10:04:05.762Z,19.6
2023-10-20T10:09:59.891Z,19.6
2023-10-20T10:15:52.176Z,19.5
2023-10-20T10:21:47.140Z,19.6
2023-10-20T10:27:51.537Z,19.5
2023-10-20T10:34:05.620Z,19.6
2023-10-20T10:40:01.214Z,19.6
2023-10-20T10:45:57.477Z,19.6
2023-10-20T10:51:57.041Z,19.6
2023-10-20T10:57:54.247Z,19.6
2023-10-20T11:03:49.479Z,19.6
2023-10-20T11:09:44.980Z,19.5
2023-10-20T11:15:39.121Z,19.6
2023-10-20T11:21:36.600Z,19.6
2023-10-20T11:27:30.626Z,19.6
2023-10-20T11:33:34.649Z,19.6
2023-10-20T11:39:27.123Z,19.6
2023-10-20T11:45:17.948Z,19.6
2023-10-20T11:51:12.848Z,19.7
2023-10-20T11:57:09.053Z,19.6
2023-10-20T12:03:00.911Z,19.7
2023-10-20T12:08:53.509Z,19.6
2023-10-20T12:14:30.132Z,19.7
2023-10-20T12:20:23.015Z,19.6
2023-10-20T12:25:59.596Z,19.7
2023-10-20T12:31:54.821Z,19.7
2023-10-20T12:37:48.606Z,19.6
2023-10-20T12:43:40.271Z,19.7
2023-10-20T12:49:18.841Z,19.7
2023-10-20T12:54:55.517Z,19.7
2023-10-20T13:00:31.820Z,19.6
2023-10-20T13:06:10.908Z,19.7
2023-10-20T13:11:59.424Z,19.7
2023-10-20T13:17:54.459Z,19.7
2023-10-20T13:23:31.096Z,19.8
2023-10-20T13:29:23.093Z,19.8
2023-10-20T13:35:19.690Z,19.8
2023-10-20T13:41:29.716Z,19.8
2023-10-20T13:47:22.427Z,19.8
2023-10-20T13:53:15.522Z,19.8
2023-10-20T13:59:07.432Z,19.8
2023-10-20T14:04:45.404Z,19.9
2023-10-20T14:10:24.141Z,19.9
2023-10-20T14:16:00.259Z,19.9
2023-10-20T14:21:36.697Z,19.9
2023-10-20T14:27:12.575Z,19.9
2023-10-20T14:32:48.693Z,19.9
2023-10-20T14:38:24.953Z,19.9
2023-10-20T14:44:04.548Z,19.9
2023-10-20T14:49:41.582Z,19.9
2023-10-20T14:55:32.862Z,20
2023-10-20T15:01:10.155Z,20
2023-10-20T15:07:20.600Z,20
2023-10-20T15:13:13.569Z,20
2023-10-20T15:19:09.899Z,20
2023-10-20T15:25:13.085Z,20
2023-10-20T15:31:06.363Z,20.1
2023-10-20T15:36:59.048Z,20.1
2023-10-20T15:43:20.128Z,20.1
2023-10-20T15:49:11.543Z,20.1
2023-10-20T15:55:03.911Z,20.1
2023-10-20T16:00:56.171Z,20.1
2023-10-20T16:06:52.318Z,20.1
2023-10-20T16:12:28.336Z,20.1
2023-10-20T16:18:19.976Z,20.1
2023-10-20T16:24:11.562Z,20.1
2023-10-20T16:30:05.296Z,20.1
2023-10-20T16:35:57.841Z,20.1
2023-10-20T16:41:49.211Z,20.1
2023-10-20T16:47:10.018Z,20.1
2023-10-20T16:53:01.601Z,20.1
2023-10-20T16:58:52.820Z,20.1
2023-10-20T17:04:45.937Z,20.1
2023-10-20T17:10:24.632Z,20.1
2023-10-20T17:16:17.996Z,20.1
2023-10-20T17:22:10.716Z,20.1
2023-10-20T17:28:02.210Z,20.1
2023-10-20T17:33:55.027Z,20.1
2023-10-20T17:39:47.741Z,20.1
2023-10-20T17:45:42.862Z,20.1
2023-10-20T17:51:35.230Z,20.1
2023-10-20T17:57:28.156Z,20.1
2023-10-20T18:03:25.571Z,20.1
2023-10-20T18:09:23.617Z,20.2
2023-10-20T18:15:16.847Z,20.2
2023-10-20T18:21:11.541Z,20.2
2023-10-20T18:27:05.045Z,20.2
2023-10-20T18:33:00.849Z,20.2
2023-10-20T18:38:53.161Z,20.2
2023-10-20T18:44:31.324Z,20.2
2023-10-20T18:50:26.812Z,20.2
2023-10-20T18:56:19.521Z,20.2
2023-10-20T19:02:13.618Z,20.3
2023-10-20T19:07:51.978Z,20.3
2023-10-20T19:13:48.122Z,20.2
2023-10-20T19:19:43.442Z,20.3
2023-10-20T19:25:38.930Z,20.3
2023-10-20T19:31:32.833Z,20.2
2023-10-20T19:37:26.661Z,20.1
2023-10-20T19:43:19.804Z,20.2
2023-10-20T19:49:13.565Z,20.2
2023-10-20T19:55:05.838Z,20.2
2023-10-20T20:00:59.246Z,20.3
2023-10-20T20:06:54.327Z,20.2
2023-10-20T20:12:46.002Z,20.2
2023-10-20T20:18:27.645Z,20.2
2023-10-20T20:24:03.878Z,20.2
2023-10-20T20:29:56.032Z,20.2
2023-10-20T20:35:48.738Z,20.1
2023-10-20T20:41:40.365Z,20.2
2023-10-20T20:47:33.786Z,20.2
2023-10-20T20:53:18.932Z,20.1
2023-10-20T20:59:11.174Z,20.1
2023-10-20T21:04:52.581Z,20.1
2023-10-20T21:10:28.095Z,20.1
2023-10-20T21:16:19.808Z,20.1
2023-10-20T21:21:57.732Z,20.1
2023-10-20T21:27:33.387Z,20.1
2023-10-20T21:33:09.350Z,20.1
2023-10-20T21:39:02.983Z,20.1
2023-10-20T21:44:38.867Z,20.1
2023-10-20T21:50:30.897Z,20.1
2023-10-20T21:55:51.651Z,20.1
2023-10-20T22:01:27.470Z,20
2023-10-20T22:07:33.970Z,20.1
2023-10-20T22:13:36.657Z,20
2023-10-20T22:19:12.974Z,20
2023-10-20T22:25:05.026Z,19.9
2023-10-20T22:30:59.567Z,20
2023-10-20T22:36:36.051Z,19.9
2023-10-20T22:42:28.543Z,19.9
2023-10-20T22:48:05.978Z,19.9
2023-10-20T22:54:00.152Z,19.9
2023-10-20T22:59:21.672Z,19.9
2023-10-20T23:04:59.437Z,19.9
2023-10-20T23:10:36.100Z,19.9
2023-10-20T23:16:27.843Z,19.9
2023-10-20T23:21:49.329Z,19.9
2023-10-20T23:27:09.602Z,19.9
2023-10-20T23:32:30.278Z,19.9
2023-10-20T23:38:22.961Z,19.9
2023-10-20T23:43:59.740Z,19.9
2023-10-20T23:49:37.060Z,19.9
2023-10-20T23:55:13.463Z,19.9
